Time;durP1;ratioP1;P1;durP2;ratioP2;P2;SDS_P1;SDS_P2;PMS_P1;PMS_P2;Temp;Humidity;BMP_temperature;BMP_pressure;BME280_temperature;BME280_humidity;BME280_pressure;Samples;Min_cycle;Max_cycle;Signal;HPM_P1;HPM_P2
2023/10/03 00:00:32;;;;;;;;;;;;;;;;;;5069071;28;845;-68
2023/10/03 00:02:58;;;;;;;;;;;;;;;;;;5068101;28;821;-70
2023/10/03 00:05:33;;;;;;;;;;;;;;;;;;5068495;28;1910;-70
2023/10/03 00:08:00;;;;;;;;;;;;;;;;;;5068013;28;915;-70
2023/10/03 00:10:26;;;;;;;;;;;;;;;;;;5068588;28;797;-68
2023/10/03 00:12:51;;;;;;;;;;;;;;;;;;5067929;28;841;-70
2023/10/03 00:15:24;;;;;;;;;;;;;;;;;;5068192;28;1019;-70
2023/10/03 00:17:49;;;;;;;;;;;;;;;;;;5067853;28;896;-69
2023/10/03 00:20:16;;;;;;;;;;;;;;;;;;5068292;28;888;-68
2023/10/03 00:22:41;;;;;;;;;;;;;;;;;;5067532;28;924;-68
2023/10/03 00:25:09;;;;;;;;;;;;;;;;;;5067971;28;1891;-68
2023/10/03 00:27:35;;;;;;;;;;;;;;;;;;5068048;28;884;-70
2023/10/03 00:30:02;;;;;;;;;;;;;;;;;;5068442;28;857;-69
2023/10/03 00:32:27;;;;;;;;;;;;;;;;;;5067817;28;888;-69
2023/10/03 00:34:54;;;;;;;;;;;;;;;;;;5071559;28;900;-68
2023/10/03 00:37:21;;;;;;;;;;;;;;;;;;5067983;28;920;-69
2023/10/03 00:39:47;;;;;;;;;;;;;;;;;;5082554;28;1078;-69
2023/10/03 00:42:13;;;;;;;;;;;;;;;;;;5067349;28;868;-68
2023/10/03 00:44:38;;;;;;;;;;;;;;;;;;5066638;28;1878;-68
2023/10/03 00:47:07;;;;;;;;;;;;;;;;;;5083200;28;828;-69
2023/10/03 00:49:33;;;;;;;;;;;;;;;;;;5067600;28;845;-68
2023/10/03 00:51:58;;;;;;;;;;;;;;;;;;5066991;28;840;-68
2023/10/03 00:54:23;;;;;;;;;;;;;;;;;;5067769;28;1007;-68
2023/10/03 00:56:49;;;;;;;;;;;;;;;;;;5055045;28;838;-69
2023/10/03 00:59:14;;;;;;;;;;;;;;;;;;5054114;28;894;-68
2023/10/03 01:01:41;;;;;;;;;;;;;;;;;;5052176;28;1384;-69
2023/10/03 01:04:10;;;;;;;;;;;;;;;;;;5053805;28;1967;-70
2023/10/03 01:06:35;;;;;;;;;;;;;;;;;;5053623;28;805;-70
2023/10/03 01:09:00;;;;;;;;;;;;;;;;;;5054007;28;848;-68
2023/10/03 01:11:27;;;;;;;;;;;;;;;;;;5070127;28;844;-70
2023/10/03 01:13:59;;;;;;;;;;;;;;;;;;5068510;28;915;-70
2023/10/03 01:16:34;;;;;;;;;;;;;;;;;;5054282;28;919;-68
2023/10/03 01:19:08;;;;;;;;;;;;;;;;;;5053545;28;884;-70
2023/10/03 01:21:34;;;;;;;;;;;;;;;;;;5054145;28;881;-68
2023/10/03 01:24:00;;;;;;;;;;;;;;;;;;5053951;28;1919;-69
2023/10/03 01:26:25;;;;;;;;;;;;;;;;;;5054385;28;955;-69
2023/10/03 01:28:51;;;;;;;;;;;;;;;;;;5054429;28;876;-68
2023/10/03 01:31:16;;;;;;;;;;;;;;;;;;5054729;28;1009;-68
2023/10/03 01:33:42;;;;;;;;;;;;;;;;;;5054361;28;932;-70
2023/10/03 01:36:08;;;;;;;;;;;;;;;;;;5054886;28;845;-68
2023/10/03 01:38:33;;;;;;;;;;;;;;;;;;5054270;28;900;-68
2023/10/03 01:41:00;;;;;;;;;;;;;;;;;;5054493;28;785;-70
2023/10/03 01:43:26;;;;;;;;;;;;;;;;;;5052952;28;1976;-69
2023/10/03 01:45:52;;;;;;;;;;;;;;;;;;5053431;28;829;-69
2023/10/03 01:48:18;;;;;;;;;;;;;;;;;;5053528;28;912;-70
2023/10/03 01:50:44;;;;;;;;;;;;;;;;;;5051230;28;1259;-70
2023/10/03 01:53:10;;;;;;;;;;;;;;;;;;5053362;28;890;-69
2023/10/03 01:55:36;;;;;;;;;;;;;;;;;;5052363;28;1037;-70
2023/10/03 01:58:03;;;;;;;;;;;;;;;;;;5052734;28;872;-70
2023/10/03 02:00:30;;;;;;;;;;;;;;;;;;5052695;28;888;-70
2023/10/03 02:03:12;;;;;;;;;;;;;;;;;;5052419;28;849;-70
2023/10/03 02:05:38;;;;;;;;;;;;;;;;;;5051815;28;1956;-70
2023/10/03 02:08:20;;;;;;;;;;;;;;;;;;5052058;28;876;-69
2023/10/03 02:10:46;;;;;;;;;;;;;;;;;;5050810;28;1492;-70
2023/10/03 02:13:14;;;;;;;;;;;;;;;;;;5052551;28;1011;-69
2023/10/03 02:15:40;;;;;;;;;;;;;;;;;;5051823;28;888;-69
2023/10/03 02:18:08;;;;;;;;;;;;;;;;;;5052619;28;832;-69
2023/10/03 02:20:38;;;;;;;;;;;;;;;;;;5052502;28;1079;-70
2023/10/03 02:23:05;;;;;;;;;;;;;;;;;;5051232;28;1448;-69
2023/10/03 02:25:35;;;;;;;;;;;;;;;;;;5052608;28;1909;-70
2023/10/03 02:28:02;;;;;;;;;;;;;;;;;;5052064;28;904;-70
2023/10/03 02:30:27;;;;;;;;;;;;;;;;;;5052289;28;912;-70
2023/10/03 02:32:57;;;;;;;;;;;;;;;;;;5052113;28;865;-69
2023/10/03 02:35:23;;;;;;;;;;;;;;;;;;5052440;28;770;-69
2023/10/03 02:37:49;;;;;;;;;;;;;;;;;;5051575;28;958;-69
2023/10/03 02:40:15;;;;;;;;;;;;;;;;;;5052185;28;1129;-69
2023/10/03 02:42:41;;;;;;;;;;;;;;;;;;5050469;28;1761;-70
2023/10/03 02:45:06;;;;;;;;;;;;;;;;;;5052035;28;1960;-70
2023/10/03 02:47:33;;;;;;;;;;;;;;;;;;5067522;28;978;-70
2023/10/03 02:49:59;;;;;;;;;;;;;;;;;;5051573;28;896;-70
2023/10/03 02:52:24;;;;;;;;;;;;;;;;;;5052187;28;817;-69
2023/10/03 02:54:50;;;;;;;;;;;;;;;;;;5051872;28;1007;-70
2023/10/03 02:57:15;;;;;;;;;;;;;;;;;;5052371;28;856;-69
2023/10/03 02:59:44;;;;;;;;;;;;;;;;;;5067039;28;876;-69
2023/10/03 03:02:11;;;;;;;;;;;;;;;;;;5067183;28;861;-70
2023/10/03 03:04:36;;;;;;;;;;;;;;;;;;5051724;28;1905;-69
2023/10/03 03:07:04;;;;;;;;;;;;;;;;;;5051383;28;935;-69
2023/10/03 03:09:35;;;;;;;;;;;;;;;;;;5051035;28;1359;-69
2023/10/03 03:12:01;;;;;;;;;;;;;;;;;;5051372;28;840;-70
2023/10/03 03:14:27;;;;;;;;;;;;;;;;;;5052273;28;860;-70
2023/10/03 03:16:53;;;;;;;;;;;;;;;;;;5051644;28;872;-70
2023/10/03 03:19:18;;;;;;;;;;;;;;;;;;5051299;28;849;-69
2023/10/03 03:21:44;;;;;;;;;;;;;;;;;;5051224;28;1095;-70
2023/10/03 03:24:15;;;;;;;;;;;;;;;;;;5051747;28;1972;-70
2023/10/03 03:26:46;;;;;;;;;;;;;;;;;;5051877;28;806;-69
2023/10/03 03:29:22;;;;;;;;;;;;;;;;;;5067010;28;908;-69
2023/10/03 03:31:48;;;;;;;;;;;;;;;;;;5051853;28;884;-70
2023/10/03 03:34:14;;;;;;;;;;;;;;;;;;5052062;28;919;-69
2023/10/03 03:36:40;;;;;;;;;;;;;;;;;;5051619;28;1019;-69
2023/10/03 03:39:13;;;;;;;;;;;;;;;;;;5067555;28;852;-69
2023/10/03 03:41:39;;;;;;;;;;;;;;;;;;5051844;28;861;-69
2023/10/03 03:44:11;;;;;;;;;;;;;;;;;;5051305;28;1953;-69
2023/10/03 03:46:37;;;;;;;;;;;;;;;;;;5052054;28;912;-70
2023/10/03 03:49:04;;;;;;;;;;;;;;;;;;5051564;28;942;-70
2023/10/03 03:51:30;;;;;;;;;;;;;;;;;;5051997;28;857;-69
2023/10/03 03:53:55;;;;;;;;;;;;;;;;;;5051202;28;881;-69
2023/10/03 03:56:21;;;;;;;;;;;;;;;;;;5052261;28;903;-69
2023/10/03 03:58:48;;;;;;;;;;;;;;;;;;5051156;28;849;-69
2023/10/03 04:01:19;;;;;;;;;;;;;;;;;;5051269;28;778;-69
2023/10/03 04:03:45;;;;;;;;;;;;;;;;;;5050883;28;1969;-68
2023/10/03 04:06:11;;;;;;;;;;;;;;;;;;5050557;28;932;-68
2023/10/03 04:08:36;;;;;;;;;;;;;;;;;;5051008;28;892;-68
2023/10/03 04:11:04;;;;;;;;;;;;;;;;;;5050440;28;829;-68
2023/10/03 04:13:35;;;;;;;;;;;;;;;;;;5051161;28;829;-68
2023/10/03 04:16:00;;;;;;;;;;;;;;;;;;5050646;28;879;-69
2023/10/03 04:18:26;;;;;;;;;;;;;;;;;;5050346;28;1036;-68
2023/10/03 04:20:53;;;;;;;;;;;;;;;;;;5050533;28;856;-69
2023/10/03 04:23:18;;;;;;;;;;;;;;;;;;5051424;28;941;-70
2023/10/03 04:25:44;;;;;;;;;;;;;;;;;;5049079;28;1902;-68
2023/10/03 04:28:11;;;;;;;;;;;;;;;;;;5050989;28;849;-70
2023/10/03 04:30:39;;;;;;;;;;;;;;;;;;5051581;28;860;-70
2023/10/03 04:33:04;;;;;;;;;;;;;;;;;;5052890;28;1301;-68
2023/10/03 04:35:29;;;;;;;;;;;;;;;;;;5054762;28;903;-70
2023/10/03 04:37:57;;;;;;;;;;;;;;;;;;5054139;28;951;-69
2023/10/03 04:40:31;;;;;;;;;;;;;;;;;;5070495;28;1214;-69
2023/10/03 04:42:57;;;;;;;;;;;;;;;;;;5054413;28;891;-70
2023/10/03 04:45:23;;;;;;;;;;;;;;;;;;5054563;28;1963;-70
2023/10/03 04:47:48;;;;;;;;;;;;;;;;;;5054121;28;883;-69
2023/10/03 04:50:18;;;;;;;;;;;;;;;;;;5054761;28;880;-70
2023/10/03 04:52:48;;;;;;;;;;;;;;;;;;5054696;28;868;-70
2023/10/03 04:55:14;;;;;;;;;;;;;;;;;;5054825;28;912;-68
2023/10/03 04:57:41;;;;;;;;;;;;;;;;;;5054712;28;1605;-70
2023/10/03 05:00:07;;;;;;;;;;;;;;;;;;5053802;28;1216;-68
2023/10/03 05:02:32;;;;;;;;;;;;;;;;;;5056109;28;1187;-68
2023/10/03 05:04:57;;;;;;;;;;;;;;;;;;5051731;28;1969;-70
2023/10/03 05:07:26;;;;;;;;;;;;;;;;;;5054241;28;892;-68
2023/10/03 05:09:51;;;;;;;;;;;;;;;;;;5063544;28;1164;-70
2023/10/03 05:12:17;;;;;;;;;;;;;;;;;;5054019;28;1191;-70
2023/10/03 05:14:43;;;;;;;;;;;;;;;;;;5052505;28;1215;-70
2023/10/03 05:17:08;;;;;;;;;;;;;;;;;;5053883;28;931;-68
2023/10/03 05:19:36;;;;;;;;;;;;;;;;;;5053152;28;967;-68
2023/10/03 05:22:02;;;;;;;;;;;;;;;;;;5053588;28;833;-70
2023/10/03 05:24:30;;;;;;;;;;;;;;;;;;5054599;28;1953;-69
2023/10/03 05:26:55;;;;;;;;;;;;;;;;;;5054253;28;935;-69
2023/10/03 05:29:21;;;;;;;;;;;;;;;;;;5054748;28;821;-68
2023/10/03 05:31:48;;;;;;;;;;;;;;;;;;5053976;28;871;-70
2023/10/03 05:34:15;;;;;;;;;;;;;;;;;;5050981;28;1341;-69
2023/10/03 05:36:40;;;;;;;;;;;;;;;;;;5054833;28;1239;-69
2023/10/03 05:39:07;;;;;;;;;;;;;;;;;;5047465;28;1136;-70
2023/10/03 05:41:32;;;;;;;;;;;;;;;;;;5053385;28;837;-69
2023/10/03 05:43:57;;;;;;;;;;;;;;;;;;5050896;28;1910;-69
2023/10/03 05:46:22;;;;;;;;;;;;;;;;;;5053103;28;1170;-69
2023/10/03 05:48:48;;;;;;;;;;;;;;;;;;5051847;28;754;-69
2023/10/03 05:51:13;;;;;;;;;;;;;;;;;;5053186;28;1063;-70
2023/10/03 05:53:40;;;;;;;;;;;;;;;;;;5052960;28;825;-69
2023/10/03 05:56:06;;;;;;;;;;;;;;;;;;5052527;28;911;-70
2023/10/03 05:58:32;;;;;;;;;;;;;;;;;;5051956;28;1104;-69
2023/10/03 06:00:58;;;;;;;;;;;;;;;;;;5052735;28;892;-69
2023/10/03 06:03:23;;;;;;;;;;;;;;;;;;5053063;28;912;-69
2023/10/03 06:05:50;;;;;;;;;;;;;;;;;;5052662;28;1902;-69
2023/10/03 06:08:15;;;;;;;;;;;;;;;;;;5052476;28;905;-69
2023/10/03 06:10:40;;;;;;;;;;;;;;;;;;5051656;28;774;-69
2023/10/03 06:13:09;;;;;;;;;;;;;;;;;;5052300;28;955;-69
2023/10/03 06:15:36;;;;;;;;;;;;;;;;;;5052498;28;944;-69
2023/10/03 06:18:02;;;;;;;;;;;;;;;;;;5053285;28;896;-69
2023/10/03 06:20:27;;;;;;;;;;;;;;;;;;5052758;28;886;-69
2023/10/03 06:22:54;;;;;;;;;;;;;;;;;;5052328;28;896;-69
2023/10/03 06:25:19;;;;;;;;;;;;;;;;;;5052863;28;1945;-69
2023/10/03 06:27:44;;;;;;;;;;;;;;;;;;5052526;28;895;-69
2023/10/03 06:30:10;;;;;;;;;;;;;;;;;;5052911;28;911;-69
2023/10/03 06:32:35;;;;;;;;;;;;;;;;;;5052661;28;947;-69
2023/10/03 06:35:01;;;;;;;;;;;;;;;;;;5052124;28;959;-69
2023/10/03 06:37:27;;;;;;;;;;;;;;;;;;5050943;28;1581;-69
2023/10/03 06:39:52;;;;;;;;;;;;;;;;;;5052256;28;884;-69
2023/10/03 06:42:18;;;;;;;;;;;;;;;;;;5052523;28;1010;-69
2023/10/03 06:44:44;;;;;;;;;;;;;;;;;;5050715;28;1902;-69
2023/10/03 06:47:10;;;;;;;;;;;;;;;;;;5052274;28;836;-69
2023/10/03 06:49:35;;;;;;;;;;;;;;;;;;5051426;28;1321;-69
2023/10/03 06:52:01;;;;;;;;;;;;;;;;;;5052125;28;841;-69
2023/10/03 06:54:27;;;;;;;;;;;;;;;;;;5051736;28;841;-69
2023/10/03 06:56:53;;;;;;;;;;;;;;;;;;5051852;28;920;-69
2023/10/03 06:59:18;;;;;;;;;;;;;;;;;;5051630;28;754;-69
2023/10/03 07:01:43;;;;;;;;;;;;;;;;;;5051760;28;1259;-69
2023/10/03 07:04:08;;;;;;;;;;;;;;;;;;5048988;28;1981;-70
2023/10/03 07:06:34;;;;;;;;;;;;;;;;;;5051778;28;852;-70
2023/10/03 07:09:00;;;;;;;;;;;;;;;;;;5052478;28;916;-70
2023/10/03 07:11:26;;;;;;;;;;;;;;;;;;5051341;28;1810;-69
2023/10/03 07:13:51;;;;;;;;;;;;;;;;;;5052028;28;853;-69
2023/10/03 07:16:16;;;;;;;;;;;;;;;;;;5051721;28;861;-70
2023/10/03 07:18:43;;;;;;;;;;;;;;;;;;5051426;28;916;-69
2023/10/03 07:21:09;;;;;;;;;;;;;;;;;;5050262;28;900;-69
2023/10/03 07:23:35;;;;;;;;;;;;;;;;;;5051142;28;1874;-69
2023/10/03 07:26:00;;;;;;;;;;;;;;;;;;5051208;28;633;-69
2023/10/03 07:28:25;;;;;;;;;;;;;;;;;;5051582;28;849;-69
2023/10/03 07:30:51;;;;;;;;;;;;;;;;;;5050324;28;1156;-69
2023/10/03 07:33:16;;;;;;;;;;;;;;;;;;5048458;28;1208;-70
2023/10/03 07:35:44;;;;;;;;;;;;;;;;;;5063201;28;1251;-70
2023/10/03 07:38:11;;;;;;;;;;;;;;;;;;5060703;28;1141;-70
2023/10/03 07:40:38;;;;;;;;;;;;;;;;;;5069345;28;1204;-69
2023/10/03 07:43:05;;;;;;;;;;;;;;;;;;5053297;28;1187;-69
2023/10/03 07:45:31;;;;;;;;;;;;;;;;;;5070869;28;1959;-69
2023/10/03 07:47:58;;;;;;;;;;;;;;;;;;5069859;28;817;-69
2023/10/03 07:50:25;;;;;;;;;;;;;;;;;;5071818;28;896;-69
2023/10/03 07:52:51;;;;;;;;;;;;;;;;;;5070806;28;900;-69
2023/10/03 07:55:17;;;;;;;;;;;;;;;;;;5071223;28;868;-69
2023/10/03 07:57:42;;;;;;;;;;;;;;;;;;5072289;28;872;-69
2023/10/03 08:00:09;;;;;;;;;;;;;;;;;;5070394;28;1222;-69
2023/10/03 08:02:34;;;;;;;;;;;;;;;;;;5071086;28;915;-69
2023/10/03 08:05:00;;;;;;;;;;;;;;;;;;5071223;28;1955;-69
2023/10/03 08:07:27;;;;;;;;;;;;;;;;;;5075289;28;931;-69
2023/10/03 08:09:53;;;;;;;;;;;;;;;;;;5075294;28;860;-69
2023/10/03 08:12:23;;;;;;;;;;;;;;;;;;5075359;28;627;-69
2023/10/03 08:14:52;;;;;;;;;;;;;;;;;;5075202;28;927;-69
2023/10/03 08:17:18;;;;;;;;;;;;;;;;;;5074952;28;1162;-69
2023/10/03 08:19:45;;;;;;;;;;;;;;;;;;5057442;28;686;-69
2023/10/03 08:22:12;;;;;;;;;;;;;;;;;;5074049;28;805;-69
2023/10/03 08:24:42;;;;;;;;;;;;;;;;;;5075092;28;1965;-70
2023/10/03 08:27:17;;;;;;;;;;;;;;;;;;5075044;28;789;-69
2023/10/03 08:29:43;;;;;;;;;;;;;;;;;;5073965;28;1194;-69
2023/10/03 08:32:09;;;;;;;;;;;;;;;;;;5074484;28;793;-69
2023/10/03 08:34:43;;;;;;;;;;;;;;;;;;5074486;28;829;-69
2023/10/03 08:37:09;;;;;;;;;;;;;;;;;;5073007;28;1638;-69
2023/10/03 08:39:34;;;;;;;;;;;;;;;;;;5075052;28;958;-69
2023/10/03 08:41:59;;;;;;;;;;;;;;;;;;5075348;28;906;-69
2023/10/03 08:44:27;;;;;;;;;;;;;;;;;;5075024;28;1905;-69
2023/10/03 08:46:55;;;;;;;;;;;;;;;;;;5075274;28;1170;-69
2023/10/03 08:49:25;;;;;;;;;;;;;;;;;;5075013;28;904;-69
2023/10/03 08:51:51;;;;;;;;;;;;;;;;;;5074574;28;990;-69
2023/10/03 08:54:17;;;;;;;;;;;;;;;;;;5075332;28;848;-70
2023/10/03 08:56:44;;;;;;;;;;;;;;;;;;5073710;28;939;-69
2023/10/03 08:59:10;;;;;;;;;;;;;;;;;;5072502;28;1215;-69
2023/10/03 09:01:43;;;;;;;;;;;;;;;;;;5073833;28;856;-69
2023/10/03 09:04:37;;;;;;;;;;;;;;;;;;5073587;28;1894;-69
2023/10/03 09:07:08;;;;;;;;;;;;;;;;;;5073450;28;919;-69
2023/10/03 09:09:34;;;;;;;;;;;;;;;;;;5073783;28;921;-69
2023/10/03 09:11:59;;;;;;;;;;;;;;;;;;5074094;28;841;-69
2023/10/03 09:14:25;;;;;;;;;;;;;;;;;;5073733;28;852;-69
2023/10/03 09:16:54;;;;;;;;;;;;;;;;;;5072613;28;907;-69
2023/10/03 09:19:25;;;;;;;;;;;;;;;;;;5074099;28;895;-70
2023/10/03 09:21:51;;;;;;;;;;;;;;;;;;5072121;28;924;-68
2023/10/03 09:24:20;;;;;;;;;;;;;;;;;;5073604;28;1890;-68
2023/10/03 09:26:46;;;;;;;;;;;;;;;;;;5073619;28;876;-69
2023/10/03 09:29:18;;;;;;;;;;;;;;;;;;5073718;28;726;-69
2023/10/03 09:31:44;;;;;;;;;;;;;;;;;;5072475;28;1312;-68
2023/10/03 09:34:13;;;;;;;;;;;;;;;;;;5055342;28;1247;-69
2023/10/03 09:36:39;;;;;;;;;;;;;;;;;;5072499;28;1535;-69
2023/10/03 09:39:06;;;;;;;;;;;;;;;;;;5073573;28;868;-69
2023/10/03 09:41:37;;;;;;;;;;;;;;;;;;5073371;28;928;-69
2023/10/03 09:44:05;;;;;;;;;;;;;;;;;;5072985;28;1902;-68
2023/10/03 09:46:40;;;;;;;;;;;;;;;;;;5073956;28;924;-68
2023/10/03 09:49:09;;;;;;;;;;;;;;;;;;5072988;28;856;-69
2023/10/03 09:51:47;;;;;;;;;;;;;;;;;;5073926;28;920;-69
2023/10/03 09:54:24;;;;;;;;;;;;;;;;;;5073536;28;864;-69
2023/10/03 09:56:50;;;;;;;;;;;;;;;;;;5073069;28;906;-69
2023/10/03 09:59:17;;;;;;;;;;;;;;;;;;5073384;28;938;-69
2023/10/03 10:01:45;;;;;;;;;;;;;;;;;;5071720;28;1212;-69
2023/10/03 10:04:13;;;;;;;;;;;;;;;;;;5073280;28;1890;-69
2023/10/03 10:06:47;;;;;;;;;;;;;;;;;;5071345;28;1196;-69
2023/10/03 10:09:28;;;;;;;;;;;;;;;;;;5055035;28;1005;-69
2023/10/03 10:12:12;;;;;;;;;;;;;;;;;;5072566;28;927;-69
2023/10/03 10:14:55;;;;;;;;;;;;;;;;;;5071746;28;950;-69
2023/10/03 10:17:21;;;;;;;;;;;;;;;;;;5072545;28;924;-69
2023/10/03 10:20:05;;;;;;;;;;;;;;;;;;5071069;28;880;-69
2023/10/03 10:22:49;;;;;;;;;;;;;;;;;;5071090;28;911;-70
2023/10/03 10:25:30;;;;;;;;;;;;;;;;;;5069684;28;1979;-69
2023/10/03 10:28:06;;;;;;;;;;;;;;;;;;5070596;28;899;-70
2023/10/03 10:30:32;;;;;;;;;;;;;;;;;;5070748;28;825;-69
2023/10/03 10:33:16;;;;;;;;;;;;;;;;;;5069439;28;1339;-69
2023/10/03 10:35:50;;;;;;;;;;;;;;;;;;5071047;28;852;-69
2023/10/03 10:38:18;;;;;;;;;;;;;;;;;;5072336;28;836;-69
2023/10/03 10:41:02;;;;;;;;;;;;;;;;;;5071985;28;832;-69
2023/10/03 10:43:28;;;;;;;;;;;;;;;;;;5071743;28;1254;-69
2023/10/03 10:46:13;;;;;;;;;;;;;;;;;;5070061;28;1909;-69
2023/10/03 10:48:43;;;;;;;;;;;;;;;;;;5069918;28;1104;-69
2023/10/03 10:51:10;;;;;;;;;;;;;;;;;;5071308;28;828;-69
2023/10/03 10:53:37;;;;;;;;;;;;;;;;;;5070072;28;1100;-69
2023/10/03 10:56:05;;;;;;;;;;;;;;;;;;5071086;28;864;-69
2023/10/03 10:58:31;;;;;;;;;;;;;;;;;;5071828;28;936;-69
2023/10/03 11:00:59;;;;;;;;;;;;;;;;;;5070468;28;899;-68
2023/10/03 11:03:24;;;;;;;;;;;;;;;;;;5071931;28;915;-69
2023/10/03 11:05:55;;;;;;;;;;;;;;;;;;5070703;28;1975;-69
2023/10/03 11:08:21;;;;;;;;;;;;;;;;;;5071319;28;920;-70
2023/10/03 11:10:48;;;;;;;;;;;;;;;;;;5070999;28;880;-70
2023/10/03 11:13:14;;;;;;;;;;;;;;;;;;5071758;28;860;-69
2023/10/03 11:15:45;;;;;;;;;;;;;;;;;;5071292;28;892;-69
2023/10/03 11:18:11;;;;;;;;;;;;;;;;;;5071557;28;920;-70
2023/10/03 11:20:36;;;;;;;;;;;;;;;;;;5071588;28;856;-70
2023/10/03 11:23:01;;;;;;;;;;;;;;;;;;5053513;28;972;-69
2023/10/03 11:25:28;;;;;;;;;;;;;;;;;;5071826;28;1902;-69
2023/10/03 11:27:56;;;;;;;;;;;;;;;;;;5071637;28;888;-69
2023/10/03 11:30:22;;;;;;;;;;;;;;;;;;5072230;28;840;-69
2023/10/03 11:32:48;;;;;;;;;;;;;;;;;;5070856;28;964;-69
2023/10/03 11:35:17;;;;;;;;;;;;;;;;;;5071981;28;860;-69
2023/10/03 11:37:46;;;;;;;;;;;;;;;;;;5071518;28;868;-69
2023/10/03 11:40:16;;;;;;;;;;;;;;;;;;5070663;28;853;-69
2023/10/03 11:42:44;;;;;;;;;;;;;;;;;;5070399;28;1205;-69
2023/10/03 11:45:13;;;;;;;;;;;;;;;;;;5070409;28;1910;-69
2023/10/03 11:47:38;;;;;;;;;;;;;;;;;;5070027;28;908;-69
2023/10/03 11:50:06;;;;;;;;;;;;;;;;;;5070761;28;920;-69
2023/10/03 11:52:31;;;;;;;;;;;;;;;;;;5071332;28;817;-69
2023/10/03 11:54:58;;;;;;;;;;;;;;;;;;5070560;28;981;-69
2023/10/03 11:57:24;;;;;;;;;;;;;;;;;;5070239;28;904;-69
2023/10/03 11:59:49;;;;;;;;;;;;;;;;;;5071546;28;907;-69
2023/10/03 12:02:15;;;;;;;;;;;;;;;;;;5071938;28;903;-69
2023/10/03 12:04:40;;;;;;;;;;;;;;;;;;5071666;28;1907;-69
2023/10/03 12:07:06;;;;;;;;;;;;;;;;;;5071907;28;907;-69
2023/10/03 12:09:31;;;;;;;;;;;;;;;;;;5072211;28;844;-69
2023/10/03 12:11:57;;;;;;;;;;;;;;;;;;5071398;28;904;-69
2023/10/03 12:14:22;;;;;;;;;;;;;;;;;;5071787;28;872;-69
2023/10/03 12:16:51;;;;;;;;;;;;;;;;;;5070831;28;987;-69
2023/10/03 12:19:19;;;;;;;;;;;;;;;;;;5071728;28;809;-69
2023/10/03 12:21:44;;;;;;;;;;;;;;;;;;5070442;28;1206;-69
2023/10/03 12:24:10;;;;;;;;;;;;;;;;;;5071430;28;1901;-69
2023/10/03 12:26:35;;;;;;;;;;;;;;;;;;5071690;28;878;-69
2023/10/03 12:29:04;;;;;;;;;;;;;;;;;;5070757;28;884;-69
2023/10/03 12:31:30;;;;;;;;;;;;;;;;;;5071094;28;956;-69
2023/10/03 12:33:56;;;;;;;;;;;;;;;;;;5070613;28;848;-69
2023/10/03 12:36:21;;;;;;;;;;;;;;;;;;5070359;28;837;-69
2023/10/03 12:38:47;;;;;;;;;;;;;;;;;;5070059;28;875;-69
2023/10/03 12:41:12;;;;;;;;;;;;;;;;;;5070302;28;840;-69
2023/10/03 12:43:45;;;;;;;;;;;;;;;;;;5069902;28;1228;-69
2023/10/03 12:46:11;;;;;;;;;;;;;;;;;;5069989;28;903;-69
2023/10/03 12:48:38;;;;;;;;;;;;;;;;;;5071096;28;943;-69
2023/10/03 12:51:04;;;;;;;;;;;;;;;;;;5070218;28;837;-69
2023/10/03 12:53:35;;;;;;;;;;;;;;;;;;5073712;28;842;-69
2023/10/03 12:56:00;;;;;;;;;;;;;;;;;;5073753;28;960;-69
2023/10/03 12:58:26;;;;;;;;;;;;;;;;;;5075316;28;966;-69
2023/10/03 13:00:51;;;;;;;;;;;;;;;;;;5073842;28;908;-69
2023/10/03 13:03:19;;;;;;;;;;;;;;;;;;5072948;28;824;-69
2023/10/03 13:05:45;;;;;;;;;;;;;;;;;;5074632;28;2012;-69
2023/10/03 13:08:10;;;;;;;;;;;;;;;;;;5073465;28;916;-69
2023/10/03 13:10:38;;;;;;;;;;;;;;;;;;5074207;28;931;-69
2023/10/03 13:13:04;;;;;;;;;;;;;;;;;;5073511;28;845;-69
2023/10/03 13:15:30;;;;;;;;;;;;;;;;;;5072891;28;981;-69
2023/10/03 13:17:57;;;;;;;;;;;;;;;;;;5073015;28;844;-69
2023/10/03 13:20:24;;;;;;;;;;;;;;;;;;5073979;28;869;-69
2023/10/03 13:22:50;;;;;;;;;;;;;;;;;;5073953;28;861;-69
2023/10/03 13:25:20;;;;;;;;;;;;;;;;;;5073302;28;1898;-69
2023/10/03 13:27:47;;;;;;;;;;;;;;;;;;5073646;28;982;-69
2023/10/03 13:30:17;;;;;;;;;;;;;;;;;;5073133;28;825;-69
2023/10/03 13:32:43;;;;;;;;;;;;;;;;;;5073419;28;623;-69
2023/10/03 13:35:08;;;;;;;;;;;;;;;;;;5071299;28;1237;-69
2023/10/03 13:37:35;;;;;;;;;;;;;;;;;;5073543;28;880;-70
2023/10/03 13:40:05;;;;;;;;;;;;;;;;;;5071461;28;1234;-69
2023/10/03 13:42:30;;;;;;;;;;;;;;;;;;5072160;28;794;-69
2023/10/03 13:44:56;;;;;;;;;;;;;;;;;;5071089;28;1981;-69
2023/10/03 13:47:22;;;;;;;;;;;;;;;;;;5071537;28;1239;-69
2023/10/03 13:49:47;;;;;;;;;;;;;;;;;;5059690;28;1168;-69
2023/10/03 13:52:14;;;;;;;;;;;;;;;;;;5063647;28;1211;-69
2023/10/03 13:54:41;;;;;;;;;;;;;;;;;;5055479;28;1188;-69
2023/10/03 13:57:06;;;;;;;;;;;;;;;;;;5069999;28;1211;-69
2023/10/03 13:59:32;;;;;;;;;;;;;;;;;;5072280;28;1227;-69
2023/10/03 14:01:57;;;;;;;;;;;;;;;;;;5073164;28;856;-69
2023/10/03 14:04:23;;;;;;;;;;;;;;;;;;5073737;28;1891;-69
2023/10/03 14:06:48;;;;;;;;;;;;;;;;;;5073731;28;887;-69
2023/10/03 14:09:16;;;;;;;;;;;;;;;;;;5073658;28;951;-69
2023/10/03 14:11:42;;;;;;;;;;;;;;;;;;5073472;28;852;-69
2023/10/03 14:14:07;;;;;;;;;;;;;;;;;;5071271;28;907;-69
2023/10/03 14:16:33;;;;;;;;;;;;;;;;;;5072774;28;999;-69
2023/10/03 14:18:58;;;;;;;;;;;;;;;;;;5071866;28;892;-69
2023/10/03 14:21:23;;;;;;;;;;;;;;;;;;5071170;28;1235;-69
2023/10/03 14:23:51;;;;;;;;;;;;;;;;;;5071125;28;1902;-69
2023/10/03 14:26:16;;;;;;;;;;;;;;;;;;5072122;28;848;-69
2023/10/03 14:28:41;;;;;;;;;;;;;;;;;;5072264;28;923;-69
2023/10/03 14:31:09;;;;;;;;;;;;;;;;;;5071673;28;904;-69
2023/10/03 14:33:34;;;;;;;;;;;;;;;;;;5072349;28;857;-69
2023/10/03 14:35:59;;;;;;;;;;;;;;;;;;5070119;28;1159;-69
2023/10/03 14:38:28;;;;;;;;;;;;;;;;;;5072661;28;983;-69
2023/10/03 14:40:55;;;;;;;;;;;;;;;;;;5071749;28;1056;-69
2023/10/03 14:43:20;;;;;;;;;;;;;;;;;;5072644;28;1031;-69
2023/10/03 14:45:46;;;;;;;;;;;;;;;;;;5070788;28;1967;-69
2023/10/03 14:48:11;;;;;;;;;;;;;;;;;;5071833;28;900;-69
2023/10/03 14:50:37;;;;;;;;;;;;;;;;;;5072312;28;864;-69
2023/10/03 14:53:02;;;;;;;;;;;;;;;;;;5071690;28;840;-69
2023/10/03 14:55:27;;;;;;;;;;;;;;;;;;5072099;28;956;-69
2023/10/03 14:57:56;;;;;;;;;;;;;;;;;;5071933;28;912;-69
2023/10/03 15:00:22;;;;;;;;;;;;;;;;;;5071863;28;840;-69
2023/10/03 15:02:48;;;;;;;;;;;;;;;;;;5071999;28;872;-69
2023/10/03 15:05:14;;;;;;;;;;;;;;;;;;5071202;28;1910;-69
2023/10/03 15:07:39;;;;;;;;;;;;;;;;;;5071673;28;880;-69
2023/10/03 15:10:07;;;;;;;;;;;;;;;;;;5070960;28;880;-69
2023/10/03 15:12:32;;;;;;;;;;;;;;;;;;5071678;28;880;-69
2023/10/03 15:14:58;;;;;;;;;;;;;;;;;;5070676;28;947;-69
2023/10/03 15:17:23;;;;;;;;;;;;;;;;;;5071741;28;913;-69
2023/10/03 15:19:49;;;;;;;;;;;;;;;;;;5070179;28;1274;-69
2023/10/03 15:22:14;;;;;;;;;;;;;;;;;;5069976;28;884;-69
2023/10/03 15:24:40;;;;;;;;;;;;;;;;;;5071297;28;1922;-69
2023/10/03 15:27:06;;;;;;;;;;;;;;;;;;5070728;28;932;-69
2023/10/03 15:29:31;;;;;;;;;;;;;;;;;;5071281;28;995;-69
2023/10/03 15:31:56;;;;;;;;;;;;;;;;;;5069887;28;1129;-69
2023/10/03 15:34:29;;;;;;;;;;;;;;;;;;5071934;28;947;-69
2023/10/03 15:36:54;;;;;;;;;;;;;;;;;;5070414;28;872;-68
2023/10/03 15:39:21;;;;;;;;;;;;;;;;;;5072188;28;851;-68
2023/10/03 15:41:48;;;;;;;;;;;;;;;;;;5072223;28;927;-68
2023/10/03 15:44:13;;;;;;;;;;;;;;;;;;5071169;28;1975;-68
2023/10/03 15:46:38;;;;;;;;;;;;;;;;;;5071600;28;1038;-69
2023/10/03 15:49:03;;;;;;;;;;;;;;;;;;5069767;28;1134;-68
2023/10/03 15:51:29;;;;;;;;;;;;;;;;;;5069763;28;1013;-69
2023/10/03 15:53:54;;;;;;;;;;;;;;;;;;5070162;28;955;-69
2023/10/03 15:56:21;;;;;;;;;;;;;;;;;;5071279;28;995;-68
2023/10/03 15:58:47;;;;;;;;;;;;;;;;;;5071504;28;919;-68
2023/10/03 16:01:15;;;;;;;;;;;;;;;;;;5069207;28;1187;-68
2023/10/03 16:03:42;;;;;;;;;;;;;;;;;;5071196;28;960;-69
2023/10/03 16:06:09;;;;;;;;;;;;;;;;;;5070626;28;1973;-68
2023/10/03 16:08:34;;;;;;;;;;;;;;;;;;5069664;28;848;-68
2023/10/03 16:11:00;;;;;;;;;;;;;;;;;;5070953;28;856;-69
2023/10/03 16:13:25;;;;;;;;;;;;;;;;;;5071447;28;920;-68
2023/10/03 16:15:50;;;;;;;;;;;;;;;;;;5071128;28;837;-68
2023/10/03 16:18:16;;;;;;;;;;;;;;;;;;5070944;28;1070;-69
2023/10/03 16:20:42;;;;;;;;;;;;;;;;;;5071607;28;805;-68
2023/10/03 16:23:10;;;;;;;;;;;;;;;;;;5070495;28;1108;-69
2023/10/03 16:25:39;;;;;;;;;;;;;;;;;;5070256;28;1902;-68
2023/10/03 16:28:05;;;;;;;;;;;;;;;;;;5073608;28;829;-68
2023/10/03 16:30:30;;;;;;;;;;;;;;;;;;5075176;28;828;-69
2023/10/03 16:32:55;;;;;;;;;;;;;;;;;;5073690;28;1199;-68
2023/10/03 16:35:21;;;;;;;;;;;;;;;;;;5074599;28;920;-68
2023/10/03 16:37:46;;;;;;;;;;;;;;;;;;5073808;28;932;-68
2023/10/03 16:40:12;;;;;;;;;;;;;;;;;;5074025;28;904;-68
2023/10/03 16:42:38;;;;;;;;;;;;;;;;;;5073761;28;1216;-68
2023/10/03 16:45:03;;;;;;;;;;;;;;;;;;5073761;28;1980;-68
2023/10/03 16:47:29;;;;;;;;;;;;;;;;;;5074466;28;781;-68
2023/10/03 16:49:54;;;;;;;;;;;;;;;;;;5074360;28;1061;-68
2023/10/03 16:52:19;;;;;;;;;;;;;;;;;;5074322;28;1047;-69
2023/10/03 16:54:46;;;;;;;;;;;;;;;;;;5073054;28;865;-69
2023/10/03 16:57:13;;;;;;;;;;;;;;;;;;5073786;28;829;-68
2023/10/03 16:59:39;;;;;;;;;;;;;;;;;;5073955;28;880;-68
2023/10/03 17:02:04;;;;;;;;;;;;;;;;;;5073984;28;833;-68
2023/10/03 17:04:30;;;;;;;;;;;;;;;;;;5073794;28;1897;-68
2023/10/03 17:06:58;;;;;;;;;;;;;;;;;;5073588;28;1074;-69
2023/10/03 17:09:23;;;;;;;;;;;;;;;;;;5073668;28;1195;-69
2023/10/03 17:11:54;;;;;;;;;;;;;;;;;;5071720;28;1211;-69
2023/10/03 17:14:19;;;;;;;;;;;;;;;;;;5074543;28;932;-68